createdAt,value
2023-03-07T00:01:33.728Z,6.20
2023-03-07T00:04:00.376Z,6.60
2023-03-07T00:06:27.693Z,5.70
2023-03-07T00:09:00.791Z,5.60
2023-03-07T00:11:28.252Z,6.50
2023-03-07T00:13:55.368Z,6.00
2023-03-07T00:16:23.881Z,6.70
2023-03-07T00:18:50.720Z,5.70
2023-03-07T00:21:21.753Z,6.50
2023-03-07T00:23:51.614Z,6.40
2023-03-07T00:26:22.272Z,7.40
2023-03-07T00:28:52.416Z,7.00
2023-03-07T00:31:20.848Z,6.50
2023-03-07T00:33:47.613Z,6.90
2023-03-07T00:36:18.120Z,7.40
2023-03-07T00:38:46.108Z,7.40
2023-03-07T00:41:19.762Z,7.30
2023-03-07T00:43:46.625Z,7.10
2023-03-07T00:46:15.821Z,7.10
2023-03-07T00:48:43.794Z,6.80
2023-03-07T00:51:14.185Z,7.50
2023-03-07T00:53:41.435Z,7.50
2023-03-07T00:56:23.120Z,7.00
2023-03-07T00:58:50.854Z,6.80
2023-03-07T01:01:21.826Z,7.00
2023-03-07T01:03:49.077Z,6.90
2023-03-07T01:06:18.552Z,7.50
2023-03-07T01:08:46.097Z,7.50
2023-03-07T01:11:13.656Z,7.10
2023-03-07T01:13:40.853Z,6.70
2023-03-07T01:16:27.511Z,6.80
2023-03-07T01:18:58.178Z,6.80
2023-03-07T01:21:30.055Z,6.80
2023-03-07T01:23:57.011Z,6.50
2023-03-07T01:26:28.937Z,7.50
2023-03-07T01:28:59.893Z,7.20
2023-03-07T01:31:27.147Z,6.90
2023-03-07T01:33:53.902Z,7.30
2023-03-07T01:36:29.338Z,7.40
2023-03-07T01:39:05.807Z,7.00
2023-03-07T01:41:37.386Z,6.70
2023-03-07T01:44:16.335Z,6.70
2023-03-07T01:46:48.518Z,7.10
2023-03-07T01:49:26.138Z,6.10
2023-03-07T01:52:01.836Z,6.60
2023-03-07T01:54:31.747Z,6.30
2023-03-07T01:57:00.918Z,6.10
2023-03-07T01:59:32.676Z,6.30
2023-03-07T02:02:07.074Z,6.00
2023-03-07T02:04:46.527Z,5.80
2023-03-07T02:07:13.281Z,6.50
2023-03-07T02:09:43.696Z,9.50
2023-03-07T02:12:10.805Z,7.60
2023-03-07T02:14:37.508Z,6.40
2023-03-07T02:17:04.110Z,7.00
2023-03-07T02:20:15.150Z,6.20
2023-03-07T02:22:41.780Z,6.10
2023-03-07T02:25:19.323Z,6.00
2023-03-07T02:27:49.422Z,5.70
2023-03-07T02:30:15.987Z,5.60
2023-03-07T02:32:42.558Z,5.60
2023-03-07T02:35:35.436Z,6.10
2023-03-07T02:38:05.179Z,6.00
2023-03-07T02:40:32.130Z,5.40
2023-03-07T02:43:08.813Z,5.80
2023-03-07T02:45:35.193Z,5.90
2023-03-07T02:48:01.629Z,6.30
2023-03-07T02:50:28.199Z,5.70
2023-03-07T02:52:54.695Z,6.50
2023-03-07T02:55:21.085Z,5.90
2023-03-07T02:57:47.498Z,6.30
2023-03-07T03:00:14.544Z,6.30
2023-03-07T03:02:40.937Z,6.50
2023-03-07T03:05:08.145Z,6.20
2023-03-07T03:07:34.920Z,5.30
2023-03-07T03:10:02.165Z,5.50
2023-03-07T03:12:28.641Z,6.50
2023-03-07T03:14:55.149Z,5.90
2023-03-07T03:17:21.785Z,6.40
2023-03-07T03:19:48.220Z,5.90
2023-03-07T03:22:14.802Z,5.80
2023-03-07T03:24:42.629Z,6.30
2023-03-07T03:27:09.641Z,6.80
2023-03-07T03:29:36.122Z,7.10
2023-03-07T03:32:03.377Z,7.80
2023-03-07T03:34:29.835Z,6.80
2023-03-07T03:36:56.297Z,7.10
2023-03-07T03:39:22.805Z,6.00
2023-03-07T03:41:49.274Z,5.70
2023-03-07T03:44:15.756Z,6.20
2023-03-07T03:46:42.224Z,6.20
2023-03-07T03:49:12.850Z,5.50
2023-03-07T03:51:39.237Z,5.70
2023-03-07T03:54:05.816Z,6.00
2023-03-07T03:56:32.236Z,5.60
2023-03-07T03:58:58.711Z,6.10
2023-03-07T04:01:28.623Z,5.90
2023-03-07T04:03:57.307Z,5.70
2023-03-07T04:06:30.161Z,5.20
2023-03-07T04:08:57.385Z,5.10
2023-03-07T04:11:25.002Z,5.50
2023-03-07T04:13:52.988Z,4.80
2023-03-07T04:16:21.846Z,4.00
2023-03-07T04:18:50.354Z,4.50
2023-03-07T04:21:18.076Z,4.20
2023-03-07T04:23:44.639Z,4.10
2023-03-07T04:26:11.868Z,4.50
2023-03-07T04:28:44.791Z,5.00
2023-03-07T04:31:15.642Z,4.10
2023-03-07T04:33:42.851Z,4.20
2023-03-07T04:36:11.032Z,4.50
2023-03-07T04:38:40.531Z,4.80
2023-03-07T04:41:15.089Z,5.10
2023-03-07T04:43:42.058Z,5.00
2023-03-07T04:46:10.552Z,4.30
2023-03-07T04:48:36.999Z,5.60
2023-03-07T04:51:04.630Z,5.20
2023-03-07T04:53:31.337Z,4.70
2023-03-07T04:56:04.325Z,4.90
2023-03-07T04:58:32.312Z,5.00
2023-03-07T05:01:01.777Z,4.50
2023-03-07T05:03:29.733Z,4.60
2023-03-07T05:06:02.761Z,2.20
2023-03-07T05:08:29.578Z,4.60
2023-03-07T05:10:57.279Z,4.60
2023-03-07T05:13:24.003Z,6.70
2023-03-07T05:15:53.219Z,6.40
2023-03-07T05:18:21.785Z,6.00
2023-03-07T05:20:49.502Z,6.70
2023-03-07T05:23:18.407Z,5.20
2023-03-07T05:25:48.331Z,4.20
2023-03-07T05:28:16.380Z,2.80
2023-03-07T05:30:44.838Z,5.30
2023-03-07T05:33:11.702Z,5.30
2023-03-07T05:35:38.867Z,4.30
2023-03-07T05:38:06.666Z,4.20
2023-03-07T05:40:33.307Z,5.30
2023-03-07T05:43:00.017Z,5.80
2023-03-07T05:45:26.533Z,5.50
2023-03-07T05:47:52.994Z,6.10
2023-03-07T05:50:20.495Z,6.00
2023-03-07T05:52:47.091Z,7.00
2023-03-07T05:55:13.511Z,7.30
2023-03-07T05:57:39.983Z,7.30
2023-03-07T06:00:09.207Z,7.70
2023-03-07T06:02:35.718Z,7.00
2023-03-07T06:05:02.329Z,7.80
2023-03-07T06:07:28.721Z,2.70
2023-03-07T06:09:55.184Z,4.70
2023-03-07T06:12:21.702Z,3.60
2023-03-07T06:14:48.133Z,3.60
2023-03-07T06:17:14.627Z,4.20
2023-03-07T06:19:41.213Z,4.50
2023-03-07T06:22:08.312Z,4.10
2023-03-07T06:24:34.805Z,4.10
2023-03-07T06:27:01.219Z,3.50
2023-03-07T06:29:27.618Z,5.80
2023-03-07T06:31:54.151Z,3.20
2023-03-07T06:34:20.584Z,3.60
2023-03-07T06:36:48.251Z,5.40
2023-03-07T06:39:20.261Z,4.60
2023-03-07T06:41:49.301Z,3.90
2023-03-07T06:44:18.870Z,3.40
2023-03-07T06:46:46.150Z,3.20
2023-03-07T06:49:12.755Z,4.30
2023-03-07T06:51:39.288Z,3.50
2023-03-07T06:54:05.857Z,4.40
2023-03-07T06:56:33.727Z,6.30
2023-03-07T06:59:00.229Z,7.50
2023-03-07T07:01:37.378Z,7.60
2023-03-07T07:04:04.850Z,6.40
2023-03-07T07:06:31.251Z,7.30
2023-03-07T07:08:59.112Z,6.70
2023-03-07T07:11:26.636Z,2.90
2023-03-07T07:13:53.415Z,4.60
2023-03-07T07:16:20.077Z,4.80
2023-03-07T07:18:46.660Z,6.10
2023-03-07T07:21:13.262Z,4.40
2023-03-07T07:23:40.887Z,2.70
2023-03-07T07:26:07.945Z,4.40
2023-03-07T07:28:34.428Z,6.10
2023-03-07T07:31:01.117Z,6.40
2023-03-07T07:33:27.544Z,5.40
2023-03-07T07:35:54.039Z,4.50
2023-03-07T07:38:20.533Z,5.50
2023-03-07T07:40:47.007Z,6.40
2023-03-07T07:43:17.597Z,5.90
2023-03-07T07:45:44.001Z,6.10
2023-03-07T07:48:10.439Z,4.60
2023-03-07T07:50:37.097Z,7.70
2023-03-07T07:53:03.861Z,3.20
2023-03-07T07:55:30.434Z,5.10
2023-03-07T07:57:56.840Z,5.20
2023-03-07T08:00:23.691Z,7.50
2023-03-07T08:02:50.828Z,5.80
2023-03-07T08:05:20.854Z,6.00
2023-03-07T08:07:49.124Z,5.80
2023-03-07T08:10:17.134Z,4.90
2023-03-07T08:12:47.345Z,5.00
2023-03-07T08:15:16.502Z,8.40
2023-03-07T08:17:43.854Z,4.30
2023-03-07T08:20:11.075Z,4.50
2023-03-07T08:22:38.728Z,5.70
2023-03-07T08:25:16.160Z,5.70
2023-03-07T08:27:43.270Z,3.20
2023-03-07T08:30:11.275Z,2.90
2023-03-07T08:32:37.849Z,3.00
2023-03-07T08:35:05.020Z,3.60
2023-03-07T08:37:31.580Z,2.80
2023-03-07T08:39:58.034Z,3.00
2023-03-07T08:42:24.523Z,5.50
2023-03-07T08:44:51.037Z,4.50
2023-03-07T08:47:17.398Z,5.80
2023-03-07T08:49:43.864Z,3.80
2023-03-07T08:52:10.282Z,4.40
2023-03-07T08:54:40.930Z,4.40
2023-03-07T08:57:10.437Z,3.10
2023-03-07T08:59:36.833Z,6.00
2023-03-07T09:02:03.460Z,5.30
2023-03-07T09:04:30.059Z,4.10
2023-03-07T09:06:59.144Z,6.00
2023-03-07T09:09:28.855Z,7.80
2023-03-07T09:11:55.622Z,4.40
2023-03-07T09:14:21.972Z,4.30
2023-03-07T09:16:48.522Z,6.50
2023-03-07T09:19:15.602Z,7.00
2023-03-07T09:21:42.164Z,5.40
2023-03-07T09:24:08.730Z,9.40
2023-03-07T09:26:35.225Z,7.10
2023-03-07T09:29:02.273Z,10.10
2023-03-07T09:31:28.827Z,9.80
2023-03-07T09:33:56.604Z,6.50
2023-03-07T09:36:23.032Z,4.70
2023-03-07T09:38:49.427Z,11.30
2023-03-07T09:41:53.165Z,10.80
2023-03-07T09:44:49.206Z,9.20
2023-03-07T09:47:41.769Z,5.50
2023-03-07T09:50:24.408Z,6.70
2023-03-07T09:52:59.618Z,14.50
2023-03-07T09:55:29.619Z,6.70
2023-03-07T09:58:03.089Z,10.00
2023-03-07T10:00:36.032Z,9.80
2023-03-07T10:03:17.671Z,5.00
2023-03-07T10:05:49.724Z,7.50
2023-03-07T10:08:21.980Z,9.90
2023-03-07T10:11:16.443Z,8.80
2023-03-07T10:14:42.814Z,6.90
2023-03-07T10:17:35.060Z,7.90
2023-03-07T10:20:16.743Z,5.40
2023-03-07T10:22:57.175Z,7.00
2023-03-07T10:25:40.312Z,8.10
2023-03-07T10:28:26.002Z,10.00
2023-03-07T10:31:00.440Z,6.60
2023-03-07T10:33:30.065Z,6.80
2023-03-07T10:36:11.188Z,6.90
2023-03-07T10:38:50.487Z,5.60
2023-03-07T10:41:20.915Z,11.30
2023-03-07T10:43:50.194Z,9.10
2023-03-07T10:46:26.551Z,11.70
2023-03-07T10:49:07.016Z,6.10
2023-03-07T10:52:11.969Z,6.90
2023-03-07T10:54:39.304Z,8.90
2023-03-07T10:57:18.441Z,9.10
2023-03-07T10:59:49.923Z,8.90
2023-03-07T11:02:30.845Z,8.10
2023-03-07T11:04:58.836Z,4.90
2023-03-07T11:07:35.687Z,7.40
2023-03-07T11:10:38.275Z,6.00
2023-03-07T11:13:20.652Z,10.60
2023-03-07T11:15:48.337Z,13.00
2023-03-07T11:18:28.340Z,12.50
2023-03-07T11:20:56.875Z,17.90
2023-03-07T11:23:30.927Z,7.90
2023-03-07T11:26:22.195Z,11.60
2023-03-07T11:29:05.734Z,13.20
2023-03-07T11:32:13.492Z,7.00
2023-03-07T11:34:59.123Z,8.50
2023-03-07T11:37:33.740Z,8.10
2023-03-07T11:40:35.726Z,7.20
2023-03-07T11:43:14.256Z,10.40
2023-03-07T11:46:14.756Z,15.20
2023-03-07T11:49:24.523Z,10.00
2023-03-07T11:52:34.873Z,11.80
2023-03-07T11:55:51.844Z,8.70
2023-03-07T11:58:44.756Z,11.00
2023-03-07T12:01:46.197Z,7.10
2023-03-07T12:04:43.490Z,11.30
2023-03-07T12:08:05.295Z,6.80
2023-03-07T12:10:54.272Z,7.90
2023-03-07T12:13:37.725Z,8.70
2023-03-07T12:16:27.032Z,10.40
2023-03-07T12:19:14.920Z,8.60
2023-03-07T12:21:50.590Z,13.90
2023-03-07T12:24:30.536Z,11.10
2023-03-07T12:27:25.021Z,8.10
2023-03-07T12:30:01.944Z,11.80
2023-03-07T12:32:31.314Z,7.70
2023-03-07T12:35:19.862Z,9.90
2023-03-07T12:37:56.850Z,11.90
2023-03-07T12:40:34.903Z,11.80
2023-03-07T12:43:28.681Z,8.00
2023-03-07T12:46:52.194Z,8.60
2023-03-07T12:50:15.617Z,10.50
2023-03-07T12:52:55.859Z,8.20
2023-03-07T12:55:43.551Z,6.40
2023-03-07T12:58:21.028Z,14.50
2023-03-07T13:01:26.619Z,7.90
2023-03-07T13:04:15.592Z,13.00
2023-03-07T13:06:45.107Z,7.00
2023-03-07T13:09:22.750Z,7.60
2023-03-07T13:12:22.596Z,6.20
2023-03-07T13:14:53.457Z,7.70
2023-03-07T13:17:34.956Z,10.70
2023-03-07T13:20:06.768Z,6.30
2023-03-07T13:22:35.864Z,7.90
2023-03-07T13:25:27.051Z,5.00
2023-03-07T13:28:02.876Z,10.90
2023-03-07T13:30:34.100Z,7.30
2023-03-07T13:33:27.142Z,5.10
2023-03-07T13:35:58.108Z,5.20
2023-03-07T13:39:31.702Z,7.80
2023-03-07T13:41:58.487Z,8.40
2023-03-07T13:44:38.264Z,6.00
2023-03-07T13:47:44.761Z,7.90
2023-03-07T13:50:33.296Z,8.90
2023-03-07T13:53:06.132Z,8.20
2023-03-07T13:55:41.908Z,9.30
2023-03-07T13:58:28.387Z,5.00
2023-03-07T14:01:00.156Z,6.50
2023-03-07T14:03:38.452Z,7.20
2023-03-07T14:06:16.566Z,5.90
2023-03-07T14:08:48.354Z,4.30
2023-03-07T14:11:36.385Z,6.00
2023-03-07T14:14:49.018Z,4.90
2023-03-07T14:17:53.057Z,7.30
2023-03-07T14:20:42.424Z,4.80
2023-03-07T14:23:27.154Z,4.90
2023-03-07T14:26:33.928Z,5.00
2023-03-07T14:29:14.038Z,3.90
2023-03-07T14:31:42.909Z,5.40
2023-03-07T14:34:21.305Z,5.00
2023-03-07T14:36:57.780Z,4.30
2023-03-07T14:39:53.207Z,4.90
2023-03-07T14:42:32.882Z,6.90
2023-03-07T14:45:24.312Z,7.00
2023-03-07T14:48:54.264Z,6.90
2023-03-07T14:51:29.585Z,5.70
2023-03-07T14:53:57.742Z,5.00
2023-03-07T14:56:31.596Z,3.40
2023-03-07T14:59:02.537Z,7.60
2023-03-07T15:01:38.388Z,6.40
2023-03-07T15:04:25.112Z,5.60
2023-03-07T15:07:01.497Z,6.20
2023-03-07T15:09:29.081Z,4.40
2023-03-07T15:12:23.097Z,8.00
2023-03-07T15:14:59.089Z,7.30
2023-03-07T15:17:33.798Z,3.70
2023-03-07T15:20:15.848Z,4.60
2023-03-07T15:22:46.785Z,6.10
2023-03-07T15:25:25.547Z,7.40
2023-03-07T15:28:21.734Z,5.60
2023-03-07T15:30:53.650Z,5.20
2023-03-07T15:33:31.985Z,4.30
2023-03-07T15:36:10.731Z,7.60
2023-03-07T15:38:50.886Z,7.70
2023-03-07T15:41:36.761Z,6.30
2023-03-07T15:44:18.118Z,5.70
2023-03-07T15:46:50.464Z,4.00
2023-03-07T15:49:27.544Z,8.00
2023-03-07T15:51:59.324Z,4.50
2023-03-07T15:54:43.162Z,5.40
2023-03-07T15:57:22.197Z,8.00
2023-03-07T16:00:16.187Z,5.30
2023-03-07T16:02:47.033Z,4.00
2023-03-07T16:05:19.503Z,8.90
2023-03-07T16:07:48.569Z,5.70
2023-03-07T16:10:15.756Z,5.20
2023-03-07T16:12:46.613Z,5.40
2023-03-07T16:15:17.053Z,6.20
2023-03-07T16:17:45.400Z,4.50
2023-03-07T16:20:18.855Z,9.40
2023-03-07T16:22:49.281Z,4.40
2023-03-07T16:25:16.743Z,5.60
2023-03-07T16:27:52.237Z,4.80
2023-03-07T16:30:23.953Z,7.30
2023-03-07T16:32:53.766Z,4.50
2023-03-07T16:35:23.972Z,5.20
2023-03-07T16:37:52.060Z,4.70
2023-03-07T16:40:20.102Z,4.20
2023-03-07T16:42:50.924Z,6.70
2023-03-07T16:45:32.174Z,4.30
2023-03-07T16:48:01.983Z,3.70
2023-03-07T16:50:32.851Z,3.60
2023-03-07T16:53:02.450Z,4.90
2023-03-07T16:55:29.201Z,3.50
2023-03-07T16:58:01.334Z,6.50
2023-03-07T17:00:31.794Z,5.20
2023-03-07T17:03:02.658Z,4.20
2023-03-07T17:05:29.851Z,3.90
2023-03-07T17:07:58.777Z,6.50
2023-03-07T17:10:26.513Z,7.00
2023-03-07T17:12:56.910Z,4.30
2023-03-07T17:15:29.761Z,3.90
2023-03-07T17:17:58.562Z,5.00
2023-03-07T17:20:26.161Z,4.50
2023-03-07T17:22:53.284Z,2.80
2023-03-07T17:25:21.868Z,2.40
2023-03-07T17:27:58.213Z,2.00
2023-03-07T17:30:28.797Z,1.20
2023-03-07T17:32:56.780Z,0.90
2023-03-07T17:35:27.503Z,0.60
2023-03-07T17:37:54.056Z,1.40
2023-03-07T17:40:22.061Z,1.10
2023-03-07T17:42:50.812Z,0.60
2023-03-07T17:45:18.406Z,1.30
2023-03-07T17:47:49.875Z,0.90
2023-03-07T17:50:19.263Z,0.50
2023-03-07T17:52:45.852Z,0.70
2023-03-07T17:55:14.974Z,1.00
2023-03-07T17:57:42.870Z,0.80
2023-03-07T18:00:13.517Z,0.30
2023-03-07T18:02:43.586Z,0.50
2023-03-07T18:05:12.560Z,0.30
2023-03-07T18:07:40.802Z,0.50
2023-03-07T18:10:10.788Z,0.30
2023-03-07T18:12:40.149Z,0.50
2023-03-07T18:15:13.402Z,0.30
2023-03-07T18:17:47.926Z,0.20
2023-03-07T18:20:19.917Z,0.20
2023-03-07T18:22:47.208Z,0.40
2023-03-07T18:25:17.415Z,0.30
2023-03-07T18:27:44.945Z,0.50
2023-03-07T18:30:13.385Z,0.50
2023-03-07T18:32:39.886Z,0.70
2023-03-07T18:35:07.449Z,1.20
2023-03-07T18:37:34.197Z,0.80
2023-03-07T18:40:00.702Z,0.60
2023-03-07T18:42:27.286Z,1.10
2023-03-07T18:44:53.958Z,0.80
2023-03-07T18:47:20.468Z,0.80
2023-03-07T18:49:50.556Z,0.90
2023-03-07T18:52:17.407Z,0.80
2023-03-07T18:54:43.985Z,0.70
2023-03-07T18:57:10.413Z,0.80
2023-03-07T18:59:36.875Z,0.90
2023-03-07T19:02:03.440Z,1.30
2023-03-07T19:04:30.869Z,0.70
2023-03-07T19:06:59.077Z,1.40
2023-03-07T19:09:28.038Z,0.80
2023-03-07T19:11:54.733Z,1.20
2023-03-07T19:14:21.393Z,1.50
2023-03-07T19:16:48.103Z,1.40
2023-03-07T19:19:14.662Z,1.40
2023-03-07T19:21:41.240Z,1.10
2023-03-07T19:24:11.216Z,1.00
2023-03-07T19:26:37.680Z,1.00
2023-03-07T19:29:04.479Z,0.60
2023-03-07T19:31:32.692Z,1.10
2023-03-07T19:34:04.416Z,2.40
2023-03-07T19:36:34.630Z,1.00
2023-03-07T19:39:01.581Z,1.20
2023-03-07T19:41:31.582Z,1.00
2023-03-07T19:44:01.265Z,1.10
2023-03-07T19:46:28.093Z,1.00
2023-03-07T19:48:55.468Z,2.50
2023-03-07T19:51:26.162Z,3.10
2023-03-07T19:53:56.844Z,5.80
2023-03-07T19:56:28.503Z,5.00
2023-03-07T19:58:58.998Z,3.90
2023-03-07T20:01:27.344Z,2.50
2023-03-07T20:03:55.015Z,1.90
2023-03-07T20:06:25.658Z,1.60
2023-03-07T20:08:57.112Z,1.80
2023-03-07T20:11:33.680Z,0.90
2023-03-07T20:14:04.465Z,0.90
2023-03-07T20:16:33.986Z,0.70
2023-03-07T20:19:08.185Z,0.90
2023-03-07T20:21:36.450Z,0.70
2023-03-07T20:24:04.033Z,0.40
2023-03-07T20:26:35.033Z,0.80
2023-03-07T20:29:04.852Z,0.60
2023-03-07T20:31:32.312Z,0.90
2023-03-07T20:33:59.952Z,0.40
2023-03-07T20:36:30.698Z,0.90
2023-03-07T20:39:01.306Z,0.60
2023-03-07T20:41:32.124Z,1.20
2023-03-07T20:44:04.030Z,0.50
2023-03-07T20:46:31.556Z,0.20
2023-03-07T20:49:00.506Z,0.60
2023-03-07T20:51:31.496Z,0.70
2023-03-07T20:54:16.048Z,0.50
2023-03-07T20:56:47.219Z,1.10
2023-03-07T20:59:18.347Z,0.60
2023-03-07T21:01:45.131Z,0.80
2023-03-07T21:04:17.009Z,0.70
2023-03-07T21:06:45.003Z,0.60
2023-03-07T21:09:14.587Z,1.20
2023-03-07T21:11:48.407Z,0.90
2023-03-07T21:14:17.523Z,1.10
2023-03-07T21:16:43.936Z,1.10
2023-03-07T21:19:12.109Z,0.60
2023-03-07T21:21:39.309Z,0.50
2023-03-07T21:24:06.533Z,0.60
2023-03-07T21:26:35.772Z,0.40
2023-03-07T21:29:04.234Z,0.90
2023-03-07T21:31:34.586Z,0.60
2023-03-07T21:34:10.087Z,0.50
2023-03-07T21:36:37.153Z,0.60
2023-03-07T21:39:06.909Z,0.60
2023-03-07T21:41:33.715Z,0.80
2023-03-07T21:44:00.216Z,1.00
2023-03-07T21:46:34.327Z,0.50
2023-03-07T21:49:01.124Z,0.20
2023-03-07T21:51:27.877Z,0.50
2023-03-07T21:53:54.359Z,0.60
2023-03-07T21:56:23.829Z,0.60
2023-03-07T21:58:51.312Z,0.50
2023-03-07T22:01:28.070Z,0.40
2023-03-07T22:03:57.936Z,0.50
2023-03-07T22:06:25.731Z,0.30
2023-03-07T22:08:52.777Z,0.50
2023-03-07T22:11:19.230Z,0.60
2023-03-07T22:13:45.612Z,0.60
2023-03-07T22:16:21.994Z,0.60
2023-03-07T22:18:55.670Z,0.70
2023-03-07T22:21:25.542Z,0.20
2023-03-07T22:23:56.963Z,0.20
2023-03-07T22:26:24.755Z,0.60
2023-03-07T22:28:52.438Z,0.80
2023-03-07T22:31:18.923Z,1.00
2023-03-07T22:33:45.583Z,0.70
2023-03-07T22:36:13.274Z,0.70
2023-03-07T22:38:42.108Z,0.80
2023-03-07T22:41:16.768Z,0.70
2023-03-07T22:43:43.678Z,0.70
2023-03-07T22:46:11.603Z,0.80
2023-03-07T22:48:39.084Z,1.30
2023-03-07T22:51:13.389Z,0.70
2023-03-07T22:53:40.228Z,0.80
2023-03-07T22:56:16.834Z,0.50
2023-03-07T22:58:43.374Z,0.30
2023-03-07T23:01:15.792Z,0.90
2023-03-07T23:03:42.838Z,0.60
2023-03-07T23:06:09.982Z,0.70
2023-03-07T23:08:36.487Z,0.80
2023-03-07T23:11:08.796Z,1.20
2023-03-07T23:13:35.198Z,0.40
2023-03-07T23:16:24.255Z,0.40
2023-03-07T23:18:54.100Z,0.40
2023-03-07T23:21:24.099Z,0.40
2023-03-07T23:23:54.666Z,0.50
2023-03-07T23:26:34.624Z,0.60
2023-03-07T23:29:01.533Z,0.40
2023-03-07T23:31:35.992Z,0.40
2023-03-07T23:34:07.090Z,0.80
2023-03-07T23:36:34.378Z,0.40
2023-03-07T23:39:00.926Z,0.50
2023-03-07T23:41:27.787Z,0.30
2023-03-07T23:43:57.325Z,0.70
2023-03-07T23:46:25.050Z,0.50
2023-03-07T23:48:52.759Z,0.70
2023-03-07T23:51:20.926Z,0.50
2023-03-07T23:53:48.070Z,0.80
2023-03-07T23:56:14.998Z,0.60
2023-03-07T23:58:43.325Z,0.50
